createdAt,value
2017-10-02T00:01:35.147Z,4.17
2017-10-02T00:04:01.736Z,3.60
2017-10-02T00:06:28.332Z,4.17
2017-10-02T00:08:54.945Z,3.40
2017-10-02T00:11:21.555Z,3.23
2017-10-02T00:13:48.189Z,3.53
2017-10-02T00:16:14.811Z,3.00
2017-10-02T00:18:41.401Z,3.53
2017-10-02T00:21:08.004Z,2.90
2017-10-02T00:23:34.614Z,3.50
2017-10-02T00:26:01.227Z,3.80
2017-10-02T00:28:27.835Z,3.97
2017-10-02T00:30:54.432Z,3.63
2017-10-02T00:33:21.038Z,3.27
2017-10-02T00:35:47.700Z,3.63
2017-10-02T00:38:14.294Z,3.43
2017-10-02T00:40:40.884Z,3.60
2017-10-02T00:43:07.525Z,3.60
2017-10-02T00:45:34.125Z,4.07
2017-10-02T00:48:00.716Z,4.43
2017-10-02T00:50:27.337Z,3.40
2017-10-02T00:52:53.932Z,3.73
2017-10-02T00:55:20.549Z,3.43
2017-10-02T00:57:47.176Z,3.57
2017-10-02T01:00:13.765Z,3.50
2017-10-02T01:02:40.358Z,4.27
2017-10-02T01:05:06.973Z,3.67
2017-10-02T01:07:33.568Z,4.07
2017-10-02T01:10:00.164Z,4.00
2017-10-02T01:12:26.772Z,3.50
2017-10-02T01:14:53.393Z,3.73
2017-10-02T01:17:20.014Z,3.83
2017-10-02T01:19:46.607Z,3.90
2017-10-02T01:22:13.199Z,4.37
2017-10-02T01:24:39.825Z,4.63
2017-10-02T01:27:06.415Z,3.93
2017-10-02T01:29:33.032Z,3.67
2017-10-02T01:31:59.632Z,3.90
2017-10-02T01:34:26.254Z,4.10
2017-10-02T01:36:52.870Z,4.47
2017-10-02T01:39:19.460Z,4.20
2017-10-02T01:41:46.076Z,3.80
2017-10-02T01:44:12.668Z,4.10
2017-10-02T01:46:39.291Z,3.70
2017-10-02T01:49:05.882Z,3.40
2017-10-02T01:51:32.471Z,4.20
2017-10-02T01:53:59.094Z,3.70
2017-10-02T01:56:25.708Z,4.23
2017-10-02T01:58:52.300Z,4.33
2017-10-02T02:01:18.908Z,3.20
2017-10-02T02:03:45.495Z,3.20
2017-10-02T02:06:12.120Z,3.90
2017-10-02T02:08:38.710Z,3.63
2017-10-02T02:11:05.295Z,2.63
2017-10-02T02:13:31.907Z,3.00
2017-10-02T02:15:58.531Z,2.90
2017-10-02T02:18:25.128Z,2.70
2017-10-02T02:20:51.724Z,3.07
2017-10-02T02:23:18.355Z,3.10
2017-10-02T02:25:44.952Z,3.43
2017-10-02T02:28:11.540Z,3.50
2017-10-02T02:30:38.145Z,3.07
2017-10-02T02:33:04.751Z,2.90
2017-10-02T02:35:31.363Z,3.20
2017-10-02T02:37:58.015Z,3.23
2017-10-02T02:40:24.620Z,3.20
2017-10-02T02:42:51.239Z,3.10
2017-10-02T02:45:17.830Z,3.80
2017-10-02T02:47:44.425Z,2.90
2017-10-02T02:50:11.028Z,3.30
2017-10-02T02:52:37.664Z,3.40
2017-10-02T02:55:04.253Z,3.33
2017-10-02T02:57:30.849Z,3.13
2017-10-02T02:59:57.460Z,3.37
2017-10-02T03:02:24.063Z,3.17
2017-10-02T03:04:50.662Z,3.60
2017-10-02T03:07:17.271Z,2.90
2017-10-02T03:09:43.888Z,2.70
2017-10-02T03:12:10.474Z,3.60
2017-10-02T03:14:37.080Z,3.40
2017-10-02T03:17:03.692Z,3.37
2017-10-02T03:19:31.235Z,3.13
2017-10-02T03:21:57.843Z,3.30
2017-10-02T03:24:24.479Z,3.17
2017-10-02T03:26:51.068Z,3.50
2017-10-02T03:29:17.686Z,3.30
2017-10-02T03:31:44.272Z,3.43
2017-10-02T03:34:10.863Z,3.67
2017-10-02T03:36:37.479Z,3.33
2017-10-02T03:39:04.071Z,3.70
2017-10-02T03:41:30.663Z,3.00
2017-10-02T03:43:57.283Z,4.03
2017-10-02T03:46:23.956Z,2.63
2017-10-02T03:48:50.539Z,3.17
2017-10-02T03:51:17.119Z,4.13
2017-10-02T03:53:43.732Z,3.20
2017-10-02T03:56:10.347Z,3.23
2017-10-02T03:58:36.932Z,3.90
2017-10-02T04:01:03.549Z,4.03
2017-10-02T04:03:30.150Z,3.50
2017-10-02T04:05:56.760Z,3.67
2017-10-02T04:08:23.370Z,4.07
2017-10-02T04:10:49.963Z,3.90
2017-10-02T04:13:16.558Z,4.07
2017-10-02T04:15:43.175Z,3.60
2017-10-02T04:20:42.992Z,3.83
2017-10-02T04:23:09.603Z,3.63
2017-10-02T04:25:36.191Z,3.90
2017-10-02T04:28:02.799Z,3.37
2017-10-02T04:30:29.423Z,4.50
2017-10-02T04:32:56.016Z,4.00
2017-10-02T04:35:22.603Z,3.33
2017-10-02T04:37:49.210Z,3.60
2017-10-02T04:40:15.824Z,3.47
2017-10-02T04:42:42.446Z,3.60
2017-10-02T04:45:09.041Z,3.43
2017-10-02T04:47:35.635Z,3.07
2017-10-02T04:50:02.240Z,3.33
2017-10-02T04:52:28.856Z,3.90
2017-10-02T04:54:55.448Z,3.20
2017-10-02T04:57:22.051Z,3.40
2017-10-02T04:59:48.645Z,3.40
2017-10-02T05:02:15.252Z,3.50
2017-10-02T05:04:41.871Z,3.20
2017-10-02T05:07:08.487Z,2.60
2017-10-02T05:09:35.092Z,3.73
2017-10-02T05:12:01.675Z,3.50
2017-10-02T05:14:28.293Z,3.40
2017-10-02T05:16:54.920Z,3.20
2017-10-02T05:19:21.515Z,3.17
2017-10-02T05:21:48.108Z,3.10
2017-10-02T05:24:14.731Z,3.00
2017-10-02T05:26:41.328Z,3.00
2017-10-02T05:29:07.945Z,3.73
2017-10-02T05:31:34.586Z,3.77
2017-10-02T05:34:01.171Z,3.47
2017-10-02T05:36:27.863Z,3.80
2017-10-02T05:38:54.464Z,3.50
2017-10-02T05:41:21.048Z,4.00
2017-10-02T05:43:47.654Z,3.57
2017-10-02T05:46:14.254Z,3.10
2017-10-02T05:48:40.949Z,3.80
2017-10-02T05:51:07.534Z,3.20
2017-10-02T05:53:34.122Z,3.50
2017-10-02T05:56:00.760Z,3.50
2017-10-02T05:58:27.351Z,3.63
2017-10-02T06:00:53.944Z,4.40
2017-10-02T06:03:20.548Z,3.03
2017-10-02T06:05:47.155Z,3.00
2017-10-02T06:08:13.784Z,3.20
2017-10-02T06:10:40.368Z,3.17
2017-10-02T06:13:06.957Z,2.90
2017-10-02T06:15:33.572Z,2.40
2017-10-02T06:18:00.167Z,3.13
2017-10-02T06:20:26.790Z,3.40
2017-10-02T06:22:53.393Z,3.20
2017-10-02T06:25:20.049Z,3.40
2017-10-02T06:27:46.669Z,2.83
2017-10-02T06:30:13.255Z,3.17
2017-10-02T06:32:39.859Z,3.37
2017-10-02T06:35:06.480Z,3.47
2017-10-02T06:37:33.060Z,2.70
2017-10-02T06:39:59.660Z,3.43
2017-10-02T06:42:26.276Z,3.10
2017-10-02T06:44:52.865Z,3.17
2017-10-02T06:47:19.501Z,2.70
2017-10-02T06:49:46.139Z,3.17
2017-10-02T06:52:12.713Z,2.90
2017-10-02T06:54:39.315Z,2.80
2017-10-02T06:57:05.913Z,3.10
2017-10-02T06:59:32.542Z,3.63
2017-10-02T07:01:59.127Z,2.50
2017-10-02T07:04:25.980Z,3.57
2017-10-02T07:06:52.583Z,3.10
2017-10-02T07:09:19.199Z,3.20
2017-10-02T07:11:45.815Z,3.30
2017-10-02T07:14:12.519Z,3.10
2017-10-02T07:16:39.131Z,2.90
2017-10-02T07:19:06.338Z,3.80
2017-10-02T07:21:32.932Z,2.90
2017-10-02T07:23:59.565Z,3.37
2017-10-02T07:26:26.156Z,2.93
2017-10-02T07:28:52.749Z,3.13
2017-10-02T07:31:19.371Z,3.00
2017-10-02T07:33:46.016Z,3.60
2017-10-02T07:36:12.679Z,3.47
2017-10-02T07:38:39.303Z,3.77
2017-10-02T07:41:05.908Z,2.90
2017-10-02T07:43:32.504Z,4.07
2017-10-02T07:45:59.112Z,3.20
2017-10-02T07:48:25.729Z,2.87
2017-10-02T07:50:52.319Z,4.30
2017-10-02T07:53:18.943Z,4.00
2017-10-02T07:55:45.542Z,3.03
2017-10-02T07:58:12.160Z,3.20
2017-10-02T08:00:38.829Z,2.97
2017-10-02T08:03:05.407Z,3.40
2017-10-02T08:05:32.000Z,3.17
2017-10-02T08:07:58.619Z,3.77
2017-10-02T08:10:25.215Z,3.67
2017-10-02T08:12:51.812Z,3.23
2017-10-02T08:15:18.465Z,3.50
2017-10-02T08:17:45.055Z,3.00
2017-10-02T08:20:11.645Z,3.50
2017-10-02T08:22:38.281Z,3.60
2017-10-02T08:25:04.860Z,2.87
2017-10-02T08:27:31.452Z,2.97
2017-10-02T08:29:58.065Z,2.87
2017-10-02T08:32:24.652Z,3.67
2017-10-02T08:34:51.267Z,3.60
2017-10-02T08:37:17.876Z,3.20
2017-10-02T08:39:44.483Z,3.67
2017-10-02T08:42:11.101Z,2.70
2017-10-02T08:44:37.687Z,3.87
2017-10-02T08:47:04.298Z,3.50
2017-10-02T08:49:30.889Z,3.30
2017-10-02T08:51:57.514Z,2.80
2017-10-02T08:54:24.104Z,3.00
2017-10-02T08:56:50.723Z,2.93
2017-10-02T08:59:17.340Z,2.57
2017-10-02T09:01:43.945Z,3.27
2017-10-02T09:04:10.561Z,2.57
2017-10-02T09:06:37.147Z,3.30
2017-10-02T09:09:03.778Z,2.53
2017-10-02T09:11:30.368Z,2.60
2017-10-02T09:13:56.968Z,2.47
2017-10-02T09:16:23.579Z,2.10
2017-10-02T09:18:50.192Z,2.70
2017-10-02T09:21:16.780Z,2.60
2017-10-02T09:23:43.400Z,2.30
2017-10-02T09:26:10.007Z,2.40
2017-10-02T09:28:36.596Z,2.10
2017-10-02T09:31:03.200Z,2.93
2017-10-02T09:33:29.793Z,2.47
2017-10-02T09:35:56.403Z,2.53
2017-10-02T09:38:23.004Z,2.00
2017-10-02T09:40:49.615Z,1.87
2017-10-02T09:43:16.217Z,1.83
2017-10-02T09:45:42.828Z,2.20
2017-10-02T09:48:09.415Z,2.10
2017-10-02T09:50:36.055Z,1.97
2017-10-02T09:53:02.680Z,1.73
2017-10-02T09:55:29.265Z,2.63
2017-10-02T09:57:55.880Z,1.70
2017-10-02T10:00:22.498Z,1.80
2017-10-02T10:02:49.088Z,1.73
2017-10-02T10:05:15.720Z,2.13
2017-10-02T10:07:42.308Z,2.00
2017-10-02T10:10:08.900Z,1.67
2017-10-02T10:12:35.529Z,1.97
2017-10-02T10:15:02.140Z,2.47
2017-10-02T10:17:28.752Z,1.60
2017-10-02T10:19:55.363Z,1.80
2017-10-02T10:22:21.968Z,1.80
2017-10-02T10:24:48.584Z,2.10
2017-10-02T10:27:15.179Z,1.80
2017-10-02T10:29:41.772Z,1.70
2017-10-02T10:32:08.388Z,1.80
2017-10-02T10:34:34.990Z,1.77
2017-10-02T10:37:01.616Z,2.00
2017-10-02T10:39:28.200Z,1.40
2017-10-02T10:41:55.632Z,1.90
2017-10-02T10:44:22.303Z,2.33
2017-10-02T10:46:48.875Z,1.83
2017-10-02T10:49:15.488Z,2.30
2017-10-02T10:51:42.156Z,1.80
2017-10-02T10:54:08.770Z,2.13
2017-10-02T10:56:35.356Z,1.80
2017-10-02T10:59:01.966Z,2.13
2017-10-02T11:01:28.570Z,2.20
2017-10-02T11:03:55.164Z,2.00
2017-10-02T11:06:21.775Z,1.87
2017-10-02T11:08:48.367Z,1.43
2017-10-02T11:11:14.989Z,1.57
2017-10-02T11:13:41.579Z,1.67
2017-10-02T11:16:08.164Z,1.50
2017-10-02T11:18:34.815Z,1.70
2017-10-02T11:21:01.417Z,1.60
2017-10-02T11:23:28.003Z,1.73
2017-10-02T11:25:54.636Z,1.77
2017-10-02T11:28:21.257Z,1.53
2017-10-02T11:30:47.864Z,1.50
2017-10-02T11:33:14.451Z,1.37
2017-10-02T11:35:41.060Z,1.30
2017-10-02T11:38:07.652Z,1.80
2017-10-02T11:40:34.271Z,1.70
2017-10-02T11:43:00.859Z,1.10
2017-10-02T11:45:27.468Z,1.73
2017-10-02T11:47:54.093Z,1.13
2017-10-02T11:50:20.675Z,1.53
2017-10-02T11:52:47.277Z,1.87
2017-10-02T11:55:13.888Z,1.97
2017-10-02T11:57:40.501Z,1.60
2017-10-02T12:00:07.131Z,1.23
2017-10-02T12:02:33.728Z,1.37
2017-10-02T12:05:00.338Z,1.50
2017-10-02T12:07:26.931Z,1.10
2017-10-02T12:09:53.565Z,1.40
2017-10-02T12:12:20.167Z,1.63
2017-10-02T12:14:46.761Z,1.63
2017-10-02T12:17:13.371Z,1.33
2017-10-02T12:19:39.964Z,1.53
2017-10-02T12:22:06.582Z,1.33
2017-10-02T12:24:33.174Z,1.47
2017-10-02T12:26:59.765Z,1.60
2017-10-02T12:29:26.375Z,1.60
2017-10-02T12:31:52.964Z,1.50
2017-10-02T12:34:19.584Z,1.97
2017-10-02T12:36:46.179Z,1.23
2017-10-02T12:39:12.798Z,1.53
2017-10-02T12:41:39.393Z,1.70
2017-10-02T12:44:06.000Z,1.40
2017-10-02T12:46:32.620Z,1.43
2017-10-02T12:48:59.203Z,1.40
2017-10-02T12:51:25.824Z,1.30
2017-10-02T12:53:52.424Z,1.50
2017-10-02T12:56:19.012Z,1.67
2017-10-02T12:58:45.627Z,1.63
2017-10-02T13:01:12.208Z,1.30
2017-10-02T13:03:38.850Z,1.10
2017-10-02T13:06:05.456Z,1.33
2017-10-02T13:08:32.052Z,1.40
2017-10-02T13:10:58.692Z,1.30
2017-10-02T13:13:25.288Z,1.30
2017-10-02T13:15:51.880Z,1.50
2017-10-02T13:18:18.493Z,1.00
2017-10-02T13:20:45.084Z,1.57
2017-10-02T13:23:11.692Z,1.37
2017-10-02T13:25:38.309Z,1.10
2017-10-02T13:28:04.895Z,1.43
2017-10-02T13:30:31.515Z,1.20
2017-10-02T13:32:58.110Z,1.43
2017-10-02T13:35:24.700Z,1.50
2017-10-02T13:37:51.315Z,1.37
2017-10-02T13:40:17.907Z,1.20
2017-10-02T13:42:44.500Z,1.10
2017-10-02T13:45:11.112Z,1.20
2017-10-02T13:47:37.711Z,1.37
2017-10-02T13:50:04.319Z,1.03
2017-10-02T13:52:30.916Z,1.20
2017-10-02T13:54:57.531Z,1.20
2017-10-02T13:57:24.118Z,1.47
2017-10-02T13:59:50.712Z,1.20
2017-10-02T14:02:17.316Z,0.97
2017-10-02T14:04:43.934Z,1.60
2017-10-02T14:07:10.591Z,1.27
2017-10-02T14:09:37.180Z,1.63
2017-10-02T14:12:03.782Z,1.30
2017-10-02T14:14:30.388Z,1.50
2017-10-02T14:16:57.003Z,1.20
2017-10-02T14:19:23.609Z,1.30
2017-10-02T14:21:50.219Z,1.23
2017-10-02T14:24:16.836Z,1.00
2017-10-02T14:26:43.432Z,1.10
2017-10-02T14:29:10.030Z,1.43
2017-10-02T14:31:36.639Z,1.17
2017-10-02T14:34:03.233Z,1.27
2017-10-02T14:36:29.864Z,1.33
2017-10-02T14:38:56.455Z,1.40
2017-10-02T14:41:23.045Z,1.40
2017-10-02T14:43:49.657Z,1.10
2017-10-02T14:46:16.252Z,1.00
2017-10-02T14:48:42.905Z,1.50
2017-10-02T14:51:09.487Z,1.47
2017-10-02T14:53:36.076Z,1.20
2017-10-02T14:56:02.696Z,1.10
2017-10-02T14:58:29.295Z,1.20
2017-10-02T15:00:55.919Z,1.40
2017-10-02T15:03:22.524Z,1.10
2017-10-02T15:05:49.112Z,1.33
2017-10-02T15:08:15.746Z,1.17
2017-10-02T15:10:42.323Z,1.20
2017-10-02T15:13:08.961Z,1.00
2017-10-02T15:15:35.535Z,1.10
2017-10-02T15:18:02.159Z,1.63
2017-10-02T15:20:28.768Z,1.73
2017-10-02T15:22:55.413Z,1.90
2017-10-02T15:25:22.000Z,1.47
2017-10-02T15:27:48.607Z,1.70
2017-10-02T15:30:15.206Z,1.50
2017-10-02T15:32:41.813Z,1.50
2017-10-02T15:35:08.426Z,1.83
2017-10-02T15:37:35.020Z,1.77
2017-10-02T15:40:01.693Z,1.60
2017-10-02T15:42:28.312Z,1.57
2017-10-02T15:44:54.919Z,1.50
2017-10-02T15:47:21.537Z,1.37
2017-10-02T15:49:48.120Z,1.27
2017-10-02T15:52:14.717Z,1.40
2017-10-02T15:54:41.327Z,1.47
2017-10-02T15:57:07.935Z,1.80
2017-10-02T15:59:34.558Z,1.20
2017-10-02T16:02:01.165Z,1.80
2017-10-02T16:04:27.764Z,1.60
2017-10-02T16:06:54.372Z,1.13
2017-10-02T16:09:20.967Z,1.63
2017-10-02T16:11:47.572Z,1.40
2017-10-02T16:14:14.189Z,1.43
2017-10-02T16:16:40.780Z,1.70
2017-10-02T16:19:07.395Z,2.10
2017-10-02T16:21:34.019Z,1.70
2017-10-02T16:24:00.617Z,2.13
2017-10-02T16:26:27.204Z,1.80
2017-10-02T16:28:53.837Z,1.53
2017-10-02T16:31:20.420Z,1.80
2017-10-02T16:33:47.014Z,2.17
2017-10-02T16:36:13.646Z,2.00
2017-10-02T16:38:40.243Z,2.27
2017-10-02T16:41:06.845Z,2.07
2017-10-02T16:43:33.472Z,1.97
2017-10-02T16:46:00.068Z,1.83
2017-10-02T16:48:26.672Z,1.80
2017-10-02T16:50:53.281Z,1.80
2017-10-02T16:53:19.868Z,2.00
2017-10-02T16:55:46.469Z,2.00
2017-10-02T16:58:13.066Z,2.13
2017-10-02T17:00:39.694Z,2.50
2017-10-02T17:03:06.292Z,2.33
2017-10-02T17:05:33.750Z,2.10
2017-10-02T17:08:00.369Z,1.60
2017-10-02T17:10:26.951Z,1.80
2017-10-02T17:12:53.586Z,2.00
2017-10-02T17:15:20.200Z,2.50
2017-10-02T17:17:46.825Z,2.57
2017-10-02T17:20:13.412Z,2.20
2017-10-02T17:22:40.008Z,2.57
2017-10-02T17:25:06.622Z,2.63
2017-10-02T17:27:33.609Z,2.50
2017-10-02T17:30:00.204Z,2.70
2017-10-02T17:32:26.834Z,2.93
2017-10-02T17:34:53.447Z,2.73
2017-10-02T17:37:20.035Z,2.90
2017-10-02T17:39:46.666Z,2.63
2017-10-02T17:42:13.273Z,2.30
2017-10-02T17:44:39.860Z,2.07
2017-10-02T17:47:06.468Z,2.40
2017-10-02T17:49:33.068Z,2.03
2017-10-02T17:51:59.676Z,2.23
2017-10-02T17:54:26.293Z,2.07
2017-10-02T17:56:52.939Z,2.30
2017-10-02T17:59:19.525Z,2.10
2017-10-02T18:01:46.117Z,2.90
2017-10-02T18:04:12.728Z,2.30
2017-10-02T18:06:39.333Z,2.20
2017-10-02T18:09:06.039Z,2.30
2017-10-02T18:11:32.667Z,2.00
2017-10-02T18:13:59.265Z,2.40
2017-10-02T18:16:25.901Z,2.53
2017-10-02T18:18:52.505Z,2.27
2017-10-02T18:21:19.107Z,2.30
2017-10-02T18:23:45.724Z,2.57
2017-10-02T18:26:12.332Z,2.83
2017-10-02T18:28:38.951Z,2.87
2017-10-02T18:31:05.561Z,2.70
2017-10-02T18:33:32.188Z,3.07
2017-10-02T18:35:58.781Z,3.67
2017-10-02T18:38:25.384Z,2.93
2017-10-02T18:40:52.017Z,3.13
2017-10-02T18:43:18.632Z,2.70
2017-10-02T18:45:45.250Z,2.63
2017-10-02T18:48:11.835Z,2.30
2017-10-02T18:50:38.456Z,2.70
2017-10-02T18:53:05.055Z,2.40
2017-10-02T18:55:31.715Z,2.37
2017-10-02T18:57:58.372Z,2.03
2017-10-02T19:00:25.025Z,1.97
2017-10-02T19:02:51.679Z,1.87
2017-10-02T19:05:18.406Z,1.90
2017-10-02T19:07:45.065Z,1.83
2017-10-02T19:10:11.679Z,2.00
2017-10-02T19:12:39.116Z,1.90
2017-10-02T19:15:05.744Z,1.90
2017-10-02T19:17:32.384Z,1.90
2017-10-02T19:19:59.045Z,1.87
2017-10-02T19:22:25.646Z,2.40
2017-10-02T19:24:52.268Z,2.00
2017-10-02T19:27:18.907Z,2.00
2017-10-02T19:29:45.588Z,2.27
2017-10-02T19:32:12.187Z,2.23
2017-10-02T19:34:38.813Z,1.73
2017-10-02T19:37:05.426Z,2.27
2017-10-02T19:39:32.068Z,1.80
2017-10-02T19:41:58.673Z,2.50
2017-10-02T19:44:25.293Z,2.37
2017-10-02T19:46:51.926Z,2.47
2017-10-02T19:49:18.516Z,2.40
2017-10-02T19:51:45.130Z,2.40
2017-10-02T19:54:11.759Z,2.93
2017-10-02T19:56:38.381Z,2.43
2017-10-02T19:59:04.997Z,2.23
2017-10-02T20:01:31.601Z,2.73
2017-10-02T20:03:58.219Z,2.73
2017-10-02T20:06:24.836Z,2.33
2017-10-02T20:08:51.407Z,2.43
2017-10-02T20:11:18.037Z,2.60
2017-10-02T20:13:44.630Z,3.00
2017-10-02T20:16:11.262Z,3.60
2017-10-02T20:18:37.831Z,3.27
2017-10-02T20:21:04.445Z,3.10
2017-10-02T20:23:31.072Z,3.13
2017-10-02T20:25:57.667Z,3.00
2017-10-02T20:28:24.256Z,2.60
2017-10-02T20:30:50.900Z,2.20
2017-10-02T20:33:17.501Z,2.27
2017-10-02T20:35:44.096Z,2.97
2017-10-02T20:38:10.723Z,3.20
2017-10-02T20:40:37.319Z,2.60
2017-10-02T20:43:03.914Z,2.80
2017-10-02T20:45:30.528Z,2.77
2017-10-02T20:47:57.180Z,2.20
2017-10-02T20:50:23.797Z,2.40
2017-10-02T20:52:50.412Z,3.10
2017-10-02T20:55:17.024Z,3.20
2017-10-02T20:57:43.631Z,2.70
2017-10-02T21:00:10.252Z,2.97
2017-10-02T21:02:36.882Z,2.83
2017-10-02T21:05:03.482Z,2.77
2017-10-02T21:07:30.091Z,3.10
2017-10-02T21:09:56.700Z,2.27
2017-10-02T21:12:23.292Z,2.70
2017-10-02T21:14:49.900Z,3.37
2017-10-02T21:17:16.527Z,3.10
2017-10-02T21:19:43.144Z,2.90
2017-10-02T21:22:09.784Z,2.93
2017-10-02T21:24:36.376Z,2.83
2017-10-02T21:27:02.991Z,3.37
2017-10-02T21:29:29.677Z,3.40
2017-10-02T21:31:56.324Z,3.40
2017-10-02T21:34:23.008Z,3.20
2017-10-02T21:36:49.617Z,3.40
2017-10-02T21:39:16.272Z,3.10
2017-10-02T21:41:42.860Z,2.90
2017-10-02T21:44:09.496Z,3.13
2017-10-02T21:46:36.100Z,3.17
2017-10-02T21:49:02.724Z,3.30
2017-10-02T21:51:29.360Z,3.37
2017-10-02T21:53:55.968Z,3.90
2017-10-02T21:56:22.634Z,3.63
2017-10-02T21:58:49.224Z,3.93
2017-10-02T22:01:15.817Z,4.00
2017-10-02T22:03:42.462Z,3.17
2017-10-02T22:06:09.047Z,3.83
2017-10-02T22:08:35.636Z,3.73
2017-10-02T22:11:02.243Z,3.20
2017-10-02T22:13:28.847Z,2.80
2017-10-02T22:15:55.484Z,3.83
2017-10-02T22:18:22.079Z,3.97
2017-10-02T22:20:48.668Z,3.53
2017-10-02T22:23:15.296Z,3.63
2017-10-02T22:25:41.932Z,3.10
2017-10-02T22:28:08.547Z,3.40
2017-10-02T22:30:35.136Z,3.50
2017-10-02T22:33:01.768Z,3.33
2017-10-02T22:35:28.375Z,3.80
2017-10-02T22:37:54.989Z,3.33
2017-10-02T22:40:21.612Z,3.30
2017-10-02T22:42:48.207Z,3.20
2017-10-02T22:45:14.808Z,2.80
2017-10-02T22:47:41.433Z,2.83
2017-10-02T22:50:08.020Z,2.40
2017-10-02T22:52:34.651Z,2.60
2017-10-02T22:55:01.267Z,2.53
2017-10-02T22:57:27.885Z,2.50
2017-10-02T22:59:54.468Z,2.37
2017-10-02T23:02:21.079Z,2.43
2017-10-02T23:04:47.701Z,2.40
2017-10-02T23:07:14.287Z,2.60
2017-10-02T23:09:40.907Z,2.50
2017-10-02T23:12:07.545Z,2.50
2017-10-02T23:14:34.144Z,2.40
2017-10-02T23:17:00.741Z,2.17
2017-10-02T23:19:27.359Z,2.00
2017-10-02T23:21:53.964Z,2.50
2017-10-02T23:24:25.622Z,2.33
2017-10-02T23:26:52.210Z,2.50
2017-10-02T23:29:18.808Z,2.50
2017-10-02T23:31:45.404Z,2.07
2017-10-02T23:34:12.016Z,2.33
2017-10-02T23:36:38.604Z,1.87
2017-10-02T23:39:05.196Z,2.03
2017-10-02T23:44:04.733Z,2.63
2017-10-02T23:46:31.345Z,2.00
2017-10-02T23:48:57.935Z,2.23
2017-10-02T23:51:24.557Z,1.90
2017-10-02T23:53:51.148Z,1.87
2017-10-02T23:56:17.782Z,1.90
2017-10-02T23:58:44.387Z,1.90
